Time;durP1;ratioP1;P1;durP2;ratioP2;P2;SDS_P1;SDS_P2;PMS_P1;PMS_P2;Temp;Humidity;BMP_temperature;BMP_pressure;BME280_temperature;BME280_humidity;BME280_pressure;Samples;Min_cycle;Max_cycle;Signal;HPM_P1;HPM_P2
2023/11/09 00:00:08;;;;;;;;;;;;;;;6.41;100.00;100232.09;5026363;28;20015;-72
2023/11/09 00:02:35;;;;;;;;;;;;;;;6.40;100.00;100226.94;5034121;28;19929;-73
2023/11/09 00:05:03;;;;;;;;;;;;;;;6.37;100.00;100230.53;5029854;28;19968;-73
2023/11/09 00:07:31;;;;;;;;;;;;;;;6.38;100.00;100220.91;5018476;28;19971;-72
2023/11/09 00:10:02;;;;;;;;;;;;;;;6.36;100.00;100218.38;4994512;28;19964;-68
2023/11/09 00:12:29;;;;;;;;;;;;;;;6.34;100.00;100218.44;5030632;28;20055;-67
2023/11/09 00:14:57;;;;;;;;;;;;;;;6.36;100.00;100213.16;5031180;28;19983;-73
2023/11/09 00:17:24;;;;;;;;;;;;;;;6.33;100.00;100213.28;5028593;28;19956;-69
2023/11/09 00:19:51;;;;;;;;;;;;;;;6.33;100.00;100203.69;5013927;28;19932;-73
2023/11/09 00:22:19;;;;;;;;;;;;;;;6.34;100.00;100207.13;5016573;28;20441;-72
2023/11/09 00:24:47;;;;;;;;;;;;;;;6.34;100.00;100205.38;5037083;28;20007;-73
2023/11/09 00:27:18;;;;;;;;;;;;;;;6.34;100.00;100200.13;5048171;28;19929;-74
2023/11/09 00:29:45;;;;;;;;;;;;;;;6.38;100.00;100194.78;5038398;28;20016;-76
2023/11/09 00:32:16;;;;;;;;;;;;;;;6.38;100.00;100194.78;5013307;28;19979;-72
2023/11/09 00:34:46;;;;;;;;;;;;;;;6.39;100.00;100196.47;5031285;28;19975;-68
2023/11/09 00:37:13;;;;;;;;;;;;;;;6.36;100.00;100188.78;5036932;28;19971;-67
2023/11/09 00:39:40;;;;;;;;;;;;;;;6.37;100.00;100187.84;5016633;28;20035;-72
2023/11/09 00:42:08;;;;;;;;;;;;;;;6.34;100.00;100189.69;5027431;28;20003;-74
2023/11/09 00:44:35;;;;;;;;;;;;;;;6.34;100.00;100194.06;5034403;28;20018;-69
2023/11/09 00:47:04;;;;;;;;;;;;;;;6.32;100.00;100193.31;5030507;28;19937;-74
2023/11/09 00:49:31;;;;;;;;;;;;;;;6.33;100.00;100188.00;5034902;28;20358;-73
2023/11/09 00:51:58;;;;;;;;;;;;;;;6.34;100.00;100179.22;5028452;28;20037;-68
2023/11/09 00:54:25;;;;;;;;;;;;;;;6.32;100.00;100175.84;5023461;28;19960;-70
2023/11/09 00:56:53;;;;;;;;;;;;;;;6.32;100.00;100170.63;5031078;28;19925;-71
2023/11/09 00:59:20;;;;;;;;;;;;;;;6.33;100.00;100161.84;5030608;28;20023;-70
2023/11/09 01:01:47;;;;;;;;;;;;;;;6.32;100.00;100164.56;5030409;28;19975;-70
2023/11/09 01:04:14;;;;;;;;;;;;;;;6.32;100.00;100164.56;5031139;28;20406;-75
2023/11/09 01:06:41;;;;;;;;;;;;;;;6.33;100.00;100155.78;5012517;28;19960;-73
2023/11/09 01:09:09;;;;;;;;;;;;;;;6.32;100.00;100159.31;5029171;28;19929;-74
2023/11/09 01:11:37;;;;;;;;;;;;;;;6.33;100.00;100148.78;5028453;28;19933;-76
2023/11/09 01:14:04;;;;;;;;;;;;;;;6.33;100.00;100140.94;5007296;28;20044;-72
2023/11/09 01:16:31;;;;;;;;;;;;;;;6.32;100.00;100143.63;5026657;28;20368;-72
2023/11/09 01:18:58;;;;;;;;;;;;;;;6.32;100.00;100143.63;5008706;28;20439;-71
2023/11/09 01:21:25;;;;;;;;;;;;;;;6.33;100.00;100145.31;5027675;28;19932;-69
2023/11/09 01:23:52;;;;;;;;;;;;;;;6.31;100.00;100132.34;5028194;28;19968;-71
2023/11/09 01:26:19;;;;;;;;;;;;;;;6.29;100.00;100128.94;5025878;28;19952;-70
2023/11/09 01:28:47;;;;;;;;;;;;;;;6.30;100.00;100135.00;4996697;28;19929;-74
2023/11/09 01:31:14;;;;;;;;;;;;;;;6.30;100.00;100130.66;5009107;28;19925;-72
2023/11/09 01:33:41;;;;;;;;;;;;;;;6.32;100.00;100122.72;4995522;28;19932;-74
2023/11/09 01:36:08;;;;;;;;;;;;;;;6.33;100.00;100114.78;5011769;28;20351;-71
2023/11/09 01:38:36;;;;;;;;;;;;;;;6.32;100.00;100107.03;5026068;28;19964;-68
2023/11/09 01:41:06;;;;;;;;;;;;;;;6.33;100.00;100111.34;5009110;28;20021;-73
2023/11/09 01:43:33;;;;;;;;;;;;;;;6.34;100.00;100102.56;5011482;28;20054;-76
2023/11/09 01:46:01;;;;;;;;;;;;;;;6.36;100.00;100097.28;5006367;28;19972;-74
2023/11/09 01:48:28;;;;;;;;;;;;;;;6.36;100.00;100087.66;5013134;28;19933;-75
2023/11/09 01:50:55;;;;;;;;;;;;;;;6.36;100.00;100097.28;5026346;28;19929;-76
2023/11/09 01:53:22;;;;;;;;;;;;;;;6.37;100.00;100083.28;5027792;28;20342;-75
2023/11/09 01:55:51;;;;;;;;;;;;;;;6.36;100.00;100092.91;5010668;28;19929;-74
2023/11/09 01:58:18;;;;;;;;;;;;;;;6.36;100.00;100081.59;5026089;28;20050;-71
2023/11/09 02:00:45;;;;;;;;;;;;;;;6.31;100.00;100069.59;5006720;28;19925;-71
2023/11/09 02:03:12;;;;;;;;;;;;;;;6.32;100.00;100068.66;5025145;28;19971;-72
2023/11/09 02:05:39;;;;;;;;;;;;;;;6.32;100.00;100067.84;4997554;28;20393;-72
2023/11/09 02:08:06;;;;;;;;;;;;;;;6.34;100.00;100064.19;5009796;28;19933;-71
2023/11/09 02:10:33;;;;;;;;;;;;;;;6.36;100.00;100071.16;5024792;28;20403;-70
2023/11/09 02:13:02;;;;;;;;;;;;;;;6.33;100.00;100072.13;5024334;28;19925;-73
2023/11/09 02:15:29;;;;;;;;;;;;;;;6.33;100.00;100074.75;5010541;28;19929;-77
2023/11/09 02:17:56;;;;;;;;;;;;;;;6.34;100.00;100065.97;5009165;28;20506;-69
2023/11/09 02:20:23;;;;;;;;;;;;;;;6.32;100.00;100065.22;5026587;28;19971;-72
2023/11/09 02:22:51;;;;;;;;;;;;;;;6.34;100.00;100068.59;5008767;28;19933;-69
2023/11/09 02:25:19;;;;;;;;;;;;;;;6.35;100.00;100065.06;4993578;28;19925;-73
2023/11/09 02:27:46;;;;;;;;;;;;;;;6.38;100.00;100066.66;4996975;28;20383;-71
2023/11/09 02:30:13;;;;;;;;;;;;;;;6.38;100.00;100064.06;5026875;28;20425;-72
2023/11/09 02:32:40;;;;;;;;;;;;;;;6.37;100.00;100057.97;5024692;28;19995;-72
2023/11/09 02:35:08;;;;;;;;;;;;;;;6.38;100.00;100064.91;5027332;28;20437;-72
2023/11/09 02:37:34;;;;;;;;;;;;;;;6.38;100.00;100064.91;5009366;28;20008;-71
2023/11/09 02:40:02;;;;;;;;;;;;;;;6.39;100.00;100050.06;5027064;28;19929;-71
2023/11/09 02:42:29;;;;;;;;;;;;;;;6.42;100.00;100055.13;5009527;28;19933;-72
2023/11/09 02:44:56;;;;;;;;;;;;;;;6.40;100.00;100043.91;5008713;28;20489;-77
2023/11/09 02:47:23;;;;;;;;;;;;;;;6.41;100.00;100041.22;5026544;28;19933;-70
2023/11/09 02:49:50;;;;;;;;;;;;;;;6.41;100.00;100043.84;5027752;28;19933;-77
2023/11/09 02:52:17;;;;;;;;;;;;;;;6.39;100.00;100040.44;5009025;28;19960;-72
2023/11/09 02:54:44;;;;;;;;;;;;;;;6.41;100.00;100038.59;5012077;28;20403;-77
2023/11/09 02:57:11;;;;;;;;;;;;;;;6.39;100.00;100034.38;5027425;28;19968;-77
2023/11/09 02:59:39;;;;;;;;;;;;;;;6.39;100.00;100026.53;4995651;28;19991;-73
2023/11/09 03:02:06;;;;;;;;;;;;;;;6.39;100.00;100024.75;4992018;28;19925;-70
2023/11/09 03:04:33;;;;;;;;;;;;;;;6.38;100.00;100025.69;5027872;28;20312;-74
2023/11/09 03:07:01;;;;;;;;;;;;;;;6.42;100.00;100019.38;5010954;28;20549;-76
2023/11/09 03:09:28;;;;;;;;;;;;;;;6.44;100.00;100017.53;5025604;28;19999;-73
2023/11/09 03:11:55;;;;;;;;;;;;;;;6.45;100.00;100014.00;5011458;28;19969;-73
2023/11/09 03:14:23;;;;;;;;;;;;;;;6.45;100.00;100006.16;5025596;28;19982;-68
2023/11/09 03:16:50;;;;;;;;;;;;;;;6.45;100.00;100013.16;5023412;28;20388;-74
2023/11/09 03:19:17;;;;;;;;;;;;;;;6.45;100.00;100008.78;5031538;28;19929;-74
2023/11/09 03:21:44;;;;;;;;;;;;;;;6.50;100.00;100011.97;5028045;28;19991;-77
2023/11/09 03:24:11;;;;;;;;;;;;;;;6.52;100.00;100006.66;5010827;28;19925;-77
2023/11/09 03:26:40;;;;;;;;;;;;;;;6.52;100.00;99997.03;5027220;28;19929;-72
2023/11/09 03:29:07;;;;;;;;;;;;;;;6.54;100.00;99991.75;5028540;28;20368;-72
2023/11/09 03:31:35;;;;;;;;;;;;;;;6.52;100.00;99991.81;5014597;28;20095;-70
2023/11/09 03:34:02;;;;;;;;;;;;;;;6.51;100.00;99990.13;5028664;28;20327;-73
2023/11/09 03:36:30;;;;;;;;;;;;;;;6.50;100.00;99993.69;5028894;28;19972;-71
2023/11/09 03:38:57;;;;;;;;;;;;;;;6.50;100.00;99978.00;5014509;28;20440;-74
2023/11/09 03:41:25;;;;;;;;;;;;;;;6.49;100.00;99973.69;5030057;28;20028;-73
2023/11/09 03:43:53;;;;;;;;;;;;;;;6.46;100.00;99967.78;5012576;28;19929;-75
2023/11/09 03:46:21;;;;;;;;;;;;;;;6.44;100.00;99965.25;5011997;28;19937;-74
2023/11/09 03:48:48;;;;;;;;;;;;;;;6.43;100.00;99963.53;5001884;28;19973;-75
2023/11/09 03:51:16;;;;;;;;;;;;;;;6.46;100.00;99965.16;5014581;28;20021;-72
2023/11/09 03:53:43;;;;;;;;;;;;;;;6.45;100.00;99966.94;5032171;28;19933;-75
2023/11/09 03:56:10;;;;;;;;;;;;;;;6.47;100.00;99956.38;5027715;28;19924;-72
2023/11/09 03:58:38;;;;;;;;;;;;;;;6.49;100.00;99954.53;5014302;28;20414;-76
2023/11/09 04:01:05;;;;;;;;;;;;;;;6.50;100.00;99953.63;5032735;28;19987;-68
2023/11/09 04:03:32;;;;;;;;;;;;;;;6.52;100.00;99949.97;5015050;28;20441;-72
2023/11/09 04:06:00;;;;;;;;;;;;;;;6.55;100.00;99941.13;5025584;28;19932;-75
2023/11/09 04:08:27;;;;;;;;;;;;;;;6.56;100.00;99934.97;5012411;28;19951;-74
2023/11/09 04:10:54;;;;;;;;;;;;;;;6.60;100.00;99929.50;5016223;28;19933;-70
2023/11/09 04:13:21;;;;;;;;;;;;;;;6.63;100.00;99928.50;5031316;28;19951;-75
2023/11/09 04:15:48;;;;;;;;;;;;;;;6.65;100.00;99923.19;5030059;28;20400;-80
2023/11/09 04:18:15;;;;;;;;;;;;;;;6.72;100.00;99927.16;5030564;28;19949;-71
2023/11/09 04:20:43;;;;;;;;;;;;;;;6.73;100.00;99914.00;5048773;28;20021;-73
2023/11/09 04:23:10;;;;;;;;;;;;;;;6.77;100.00;99912.91;5018504;28;19926;-75
2023/11/09 04:25:37;;;;;;;;;;;;;;;6.81;100.00;99908.34;5010679;28;19971;-73
2023/11/09 04:28:04;;;;;;;;;;;;;;;6.85;100.00;99900.25;5031237;28;20347;-69
2023/11/09 04:30:31;;;;;;;;;;;;;;;6.91;100.00;99895.59;5013184;28;19933;-74
2023/11/09 04:32:58;;;;;;;;;;;;;;;6.96;100.00;99899.66;4992922;28;19929;-78
2023/11/09 04:35:25;;;;;;;;;;;;;;;7.00;100.00;99892.47;5031322;28;19979;-72
2023/11/09 04:37:56;;;;;;;;;;;;;;;7.05;100.00;99900.91;5030245;28;20031;-71
2023/11/09 04:40:25;;;;;;;;;;;;;;;7.09;100.00;99892.78;5031466;28;19929;-73
2023/11/09 04:42:56;;;;;;;;;;;;;;;7.15;100.00;99878.50;5028736;28;19933;-71
2023/11/09 04:45:25;;;;;;;;;;;;;;;7.17;100.00;99878.44;5012078;28;20383;-73
2023/11/09 04:47:58;;;;;;;;;;;;;;;7.24;99.71;99871.91;5026267;28;20643;-72
2023/11/09 04:50:30;;;;;;;;;;;;;;;7.28;99.59;99876.88;5027426;28;19961;-69
2023/11/09 04:53:29;;;;;;;;;;;;;;;7.30;99.69;99866.34;5028954;28;20360;-76
2023/11/09 04:55:53;;;;;;;;;;;;;;;7.34;99.01;99860.84;5027712;28;19929;-70
2023/11/09 05:06:51;;;;;;;;;;;;;;;7.49;97.99;99843.38;5026296;28;19956;-82
2023/11/09 05:09:19;;;;;;;;;;;;;;;7.53;97.49;99846.69;5013077;28;19925;-76
2023/11/09 05:11:47;;;;;;;;;;;;;;;7.58;97.32;99842.00;4997940;28;19925;-70
2023/11/09 05:14:14;;;;;;;;;;;;;;;7.59;96.57;99838.44;5026613;28;19961;-72
2023/11/09 05:16:41;;;;;;;;;;;;;;;7.61;96.07;99840.06;5024350;28;19970;-72
2023/11/09 05:19:09;;;;;;;;;;;;;;;7.67;95.73;99830.97;5008105;28;19933;-72
2023/11/09 05:21:38;;;;;;;;;;;;;;;7.72;95.88;99834.16;5024593;28;20458;-73
2023/11/09 05:24:05;;;;;;;;;;;;;;;7.75;94.73;99831.38;5020712;28;19929;-72
2023/11/09 05:26:33;;;;;;;;;;;;;;;7.74;94.37;99818.34;5040497;28;20602;-74
2023/11/09 05:29:00;;;;;;;;;;;;;;;7.80;93.78;99823.25;5022198;28;20344;-72
2023/11/09 05:31:28;;;;;;;;;;;;;;;7.82;93.72;99821.34;5018721;28;21719;-72
2023/11/09 05:33:55;;;;;;;;;;;;;;;7.83;93.50;99818.66;5019550;28;19956;-73
2023/11/09 05:36:22;;;;;;;;;;;;;;;7.85;92.84;99821.19;5028159;28;19925;-71
2023/11/09 05:38:49;;;;;;;;;;;;;;;7.91;93.15;99819.97;5028617;28;19929;-70
2023/11/09 05:41:19;;;;;;;;;;;;;;;7.94;93.31;99819.78;5029031;28;19929;-72
2023/11/09 05:43:46;;;;;;;;;;;;;;;7.95;92.39;99824.06;5025096;28;20285;-72
2023/11/09 05:46:13;;;;;;;;;;;;;;;7.94;91.69;99823.25;5010502;28;20115;-70
2023/11/09 05:48:42;;;;;;;;;;;;;;;7.97;91.84;99824.81;4989343;28;20402;-71
2023/11/09 05:51:09;;;;;;;;;;;;;;;7.99;91.50;99820.34;4993565;28;19925;-73
2023/11/09 05:53:36;;;;;;;;;;;;;;;8.01;91.18;99816.66;5026346;28;19972;-71
2023/11/09 05:56:04;;;;;;;;;;;;;;;8.05;91.66;99812.09;5028775;28;19933;-74
2023/11/09 05:58:31;;;;;;;;;;;;;;;8.08;91.17;99804.88;5025692;28;19933;-72
2023/11/09 06:00:58;;;;;;;;;;;;;;;8.09;90.38;99805.72;5010487;28;19932;-74
2023/11/09 06:03:26;;;;;;;;;;;;;;;8.09;90.16;99800.47;5006470;28;19933;-72
2023/11/09 06:05:53;;;;;;;;;;;;;;;8.13;90.09;99808.06;5022173;28;19995;-70
2023/11/09 06:08:20;;;;;;;;;;;;;;;8.16;89.45;99799.19;5021526;28;20330;-72
2023/11/09 06:10:49;;;;;;;;;;;;;;;8.17;89.19;99800.84;4992439;28;19933;-73
2023/11/09 06:13:16;;;;;;;;;;;;;;;8.20;88.87;99786.72;5025361;28;19925;-74
2023/11/09 06:15:43;;;;;;;;;;;;;;;8.24;88.70;99801.31;5008068;28;20023;-72
2023/11/09 06:18:10;;;;;;;;;;;;;;;8.30;87.96;99798.31;5023032;28;19968;-73
2023/11/09 06:20:38;;;;;;;;;;;;;;;8.34;88.38;99798.03;5024709;28;20050;-72
2023/11/09 06:23:05;;;;;;;;;;;;;;;8.34;87.04;99797.19;5026515;28;19969;-73
2023/11/09 06:25:32;;;;;;;;;;;;;;;8.38;87.48;99803.97;5008104;28;20673;-73
2023/11/09 06:28:00;;;;;;;;;;;;;;;8.42;87.50;99800.22;5008140;28;19976;-70
2023/11/09 06:30:27;;;;;;;;;;;;;;;8.44;86.58;99808.81;5022972;28;19964;-74
2023/11/09 06:32:54;;;;;;;;;;;;;;;8.43;86.97;99801.88;5025455;28;19929;-72
2023/11/09 06:35:21;;;;;;;;;;;;;;;8.43;86.75;99798.44;5026019;28;19925;-72
2023/11/09 06:37:50;;;;;;;;;;;;;;;8.46;86.75;99792.97;5013931;28;19929;-72
2023/11/09 06:40:17;;;;;;;;;;;;;;;8.48;86.68;99784.06;5005399;28;19976;-73
2023/11/09 06:42:47;;;;;;;;;;;;;;;8.48;86.38;99784.06;5004151;28;20384;-71
2023/11/09 06:45:14;;;;;;;;;;;;;;;8.53;86.36;99786.41;5007937;28;19976;-72
2023/11/09 06:47:41;;;;;;;;;;;;;;;8.53;86.14;99787.25;5020894;28;19929;-72
2023/11/09 06:50:12;;;;;;;;;;;;;;;8.59;85.86;99784.22;5023981;28;20396;-72
2023/11/09 06:52:40;;;;;;;;;;;;;;;8.53;85.41;99789.88;5007883;28;19964;-73
2023/11/09 06:55:08;;;;;;;;;;;;;;;8.56;85.80;99784.44;5026014;28;19933;-72
2023/11/09 06:57:36;;;;;;;;;;;;;;;8.61;85.85;99784.13;5023477;28;19972;-72
2023/11/09 07:00:05;;;;;;;;;;;;;;;8.67;85.10;99785.50;4990910;28;20032;-73
2023/11/09 07:02:33;;;;;;;;;;;;;;;8.61;84.49;99787.59;5022241;28;19926;-72
2023/11/09 07:05:00;;;;;;;;;;;;;;;8.69;84.71;99791.50;5023613;28;20067;-72
2023/11/09 07:07:27;;;;;;;;;;;;;;;8.68;83.76;99798.53;5025601;28;19979;-72
2023/11/09 07:09:54;;;;;;;;;;;;;;;8.75;84.21;99791.94;5020042;28;20027;-72
2023/11/09 07:12:22;;;;;;;;;;;;;;;8.78;83.31;99785.66;5027296;28;20092;-73
2023/11/09 07:14:49;;;;;;;;;;;;;;;8.79;83.21;99785.56;5005523;28;20025;-72
2023/11/09 07:17:16;;;;;;;;;;;;;;;8.83;83.06;99799.34;5009145;28;19929;-70
2023/11/09 07:19:47;;;;;;;;;;;;;;;8.85;82.26;99798.28;5022189;28;22069;-72
2023/11/09 07:22:15;;;;;;;;;;;;;;;8.81;82.81;99794.16;5005800;28;20534;-72
2023/11/09 07:24:49;;;;;;;;;;;;;;;8.82;82.88;99779.25;5005077;28;19964;-72
2023/11/09 07:27:20;;;;;;;;;;;;;;;8.91;82.20;99788.31;5022018;28;19933;-71
2023/11/09 07:29:47;;;;;;;;;;;;;;;8.94;81.84;99796.84;5001854;28;20008;-72
2023/11/09 07:32:14;;;;;;;;;;;;;;;8.99;81.82;99791.28;5023133;28;19963;-72
2023/11/09 07:34:41;;;;;;;;;;;;;;;9.01;81.75;99787.63;5005967;28;20393;-71
2023/11/09 07:37:11;;;;;;;;;;;;;;;9.05;81.12;99790.88;5019784;28;20568;-71
2023/11/09 07:39:40;;;;;;;;;;;;;;;9.12;80.99;99784.28;5018811;28;19925;-72
2023/11/09 07:42:07;;;;;;;;;;;;;;;9.07;79.96;99779.34;5007052;28;19987;-72
2023/11/09 07:44:34;;;;;;;;;;;;;;;9.07;80.59;99789.84;5020861;28;19940;-71
2023/11/09 07:47:02;;;;;;;;;;;;;;;9.12;80.11;99785.13;5024316;28;20284;-72
2023/11/09 07:49:30;;;;;;;;;;;;;;;9.22;79.69;99787.97;5020821;28;19987;-69
2023/11/09 07:52:00;;;;;;;;;;;;;;;9.20;79.11;99783.78;5005082;28;19987;-70
2023/11/09 07:54:29;;;;;;;;;;;;;;;9.23;79.61;99781.81;5027088;28;19937;-71
2023/11/09 07:57:01;;;;;;;;;;;;;;;9.31;79.29;99783.91;5007651;28;19925;-71
2023/11/09 07:59:28;;;;;;;;;;;;;;;9.29;78.77;99783.19;5023430;28;19960;-71
2023/11/09 08:01:56;;;;;;;;;;;;;;;9.25;78.33;99779.91;4998180;28;19965;-70
2023/11/09 08:04:28;;;;;;;;;;;;;;;9.30;78.40;99783.06;5023545;28;19987;-70
2023/11/09 08:06:55;;;;;;;;;;;;;;;9.28;78.48;99779.72;5021135;28;19925;-72
2023/11/09 08:09:22;;;;;;;;;;;;;;;9.35;77.92;99774.88;5024799;28;19975;-71
2023/11/09 08:11:49;;;;;;;;;;;;;;;9.41;77.64;99778.88;5012085;28;19959;-70
2023/11/09 08:14:16;;;;;;;;;;;;;;;9.45;77.10;99770.66;5008174;28;20032;-68
2023/11/09 08:16:43;;;;;;;;;;;;;;;9.50;77.55;99760.72;5008339;28;19933;-71
2023/11/09 08:19:12;;;;;;;;;;;;;;;9.54;76.50;99759.53;5019909;28;20044;-71
2023/11/09 08:21:39;;;;;;;;;;;;;;;9.60;76.71;99760.94;5025473;28;20336;-73
2023/11/09 08:24:07;;;;;;;;;;;;;;;9.60;75.96;99760.94;5024395;28;20018;-69
2023/11/09 08:26:34;;;;;;;;;;;;;;;9.62;75.65;99756.41;5023835;28;19925;-74
2023/11/09 08:29:01;;;;;;;;;;;;;;;9.68;75.28;99749.88;5010811;28;19925;-72
2023/11/09 08:31:33;;;;;;;;;;;;;;;9.74;74.65;99752.09;5029494;28;19933;-71
2023/11/09 08:34:00;;;;;;;;;;;;;;;9.76;73.41;99753.66;5027377;28;19953;-69
2023/11/09 08:36:28;;;;;;;;;;;;;;;9.75;73.70;99741.47;5044012;28;19944;-71
2023/11/09 08:38:55;;;;;;;;;;;;;;;9.82;73.63;99739.25;5026463;28;19971;-70
2023/11/09 08:41:23;;;;;;;;;;;;;;;9.89;73.68;99740.50;5010219;28;19929;-70
2023/11/09 08:43:50;;;;;;;;;;;;;;;9.94;72.62;99738.38;5013503;28;19929;-69
2023/11/09 08:46:17;;;;;;;;;;;;;;;10.05;72.08;99738.47;5028157;28;19929;-71
2023/11/09 08:48:44;;;;;;;;;;;;;;;10.19;71.78;99742.75;5005584;28;20348;-70
2023/11/09 08:51:13;;;;;;;;;;;;;;;10.26;71.69;99744.00;5025417;28;20067;-69
2023/11/09 08:53:42;;;;;;;;;;;;;;;10.17;70.60;99738.53;5025694;28;19957;-69
2023/11/09 08:56:10;;;;;;;;;;;;;;;10.17;71.12;99746.44;5022570;28;19931;-68
2023/11/09 08:58:39;;;;;;;;;;;;;;;10.25;70.53;99742.34;5039610;28;19998;-70
2023/11/09 09:01:17;;;;;;;;;;;;;;;10.36;70.28;99749.47;5009415;28;19925;-70
2023/11/09 09:03:45;;;;;;;;;;;;;;;10.34;69.79;99746.09;5026300;28;19957;-70
2023/11/09 09:06:13;;;;;;;;;;;;;;;10.40;69.78;99737.75;5007372;28;19960;-71
2023/11/09 09:08:40;;;;;;;;;;;;;;;10.45;69.46;99733.03;5027743;28;19925;-73
2023/11/09 09:11:11;;;;;;;;;;;;;;;10.50;69.12;99725.63;5027171;28;20358;-70
2023/11/09 09:13:38;;;;;;;;;;;;;;;10.63;69.52;99738.75;5030113;28;19960;-72
2023/11/09 09:16:06;;;;;;;;;;;;;;;10.43;69.06;99732.28;4987152;28;20343;-71
2023/11/09 09:18:33;;;;;;;;;;;;;;;10.52;68.85;99734.25;5010480;28;19929;-71
2023/11/09 09:21:01;;;;;;;;;;;;;;;10.52;68.30;99730.78;5023540;28;19971;-72
2023/11/09 09:23:28;;;;;;;;;;;;;;;10.49;68.66;99729.22;5024301;28;20295;-72
2023/11/09 09:25:55;;;;;;;;;;;;;;;10.56;69.05;99727.81;5004524;28;19925;-73
2023/11/09 09:28:22;;;;;;;;;;;;;;;10.53;68.46;99725.38;5025563;28;19925;-70
2023/11/09 09:30:50;;;;;;;;;;;;;;;10.64;68.41;99729.88;5024367;28;19972;-70
2023/11/09 09:33:17;;;;;;;;;;;;;;;10.55;68.10;99735.81;5009572;28;20423;-68
2023/11/09 09:35:46;;;;;;;;;;;;;;;10.46;68.85;99737.31;5022507;28;20039;-68
2023/11/09 09:38:16;;;;;;;;;;;;;;;10.38;68.40;99731.78;5021255;28;19960;-70
2023/11/09 09:40:43;;;;;;;;;;;;;;;10.47;68.29;99727.63;5007702;28;20478;-72
2023/11/09 09:43:19;;;;;;;;;;;;;;;10.51;68.53;99729.94;5005406;28;19980;-72
2023/11/09 09:45:50;;;;;;;;;;;;;;;10.69;68.17;99719.00;4992874;28;19929;-73
2023/11/09 09:48:17;;;;;;;;;;;;;;;10.81;67.57;99739.19;5008362;28;19937;-72
2023/11/09 09:50:44;;;;;;;;;;;;;;;10.83;66.75;99732.81;5007653;28;19937;-71
2023/11/09 09:53:12;;;;;;;;;;;;;;;10.99;66.40;99724.63;5005850;28;19931;-72
2023/11/09 09:55:40;;;;;;;;;;;;;;;11.08;66.66;99716.03;5008221;28;19987;-69
2023/11/09 09:58:08;;;;;;;;;;;;;;;11.19;65.10;99714.38;5021741;28;19925;-71
2023/11/09 10:00:39;;;;;;;;;;;;;;;11.34;65.11;99713.22;5008976;28;19971;-68
2023/11/09 10:03:06;;;;;;;;;;;;;;;11.31;64.82;99721.38;5000589;28;19961;-69
2023/11/09 10:05:35;;;;;;;;;;;;;;;11.31;65.05;99716.94;5022622;28;20027;-69
2023/11/09 10:08:05;;;;;;;;;;;;;;;11.25;65.10;99709.47;5018899;28;19972;-72
2023/11/09 10:10:37;;;;;;;;;;;;;;;11.15;65.54;99714.59;5021581;28;19984;-72
2023/11/09 10:13:06;;;;;;;;;;;;;;;11.09;65.06;99725.63;5016397;28;20372;-69
2023/11/09 10:15:34;;;;;;;;;;;;;;;11.07;65.51;99724.03;5020139;28;19941;-69
2023/11/09 10:18:01;;;;;;;;;;;;;;;11.07;65.33;99711.72;5020909;28;20028;-69
2023/11/09 10:20:29;;;;;;;;;;;;;;;11.18;65.87;99707.44;5015534;28;20211;-73
2023/11/09 10:22:56;;;;;;;;;;;;;;;11.24;64.97;99709.59;5002810;28;19955;-70
2023/11/09 10:25:27;;;;;;;;;;;;;;;11.29;64.64;99710.09;5005824;28;19995;-72
2023/11/09 10:27:55;;;;;;;;;;;;;;;11.30;65.22;99709.13;5019561;28;20051;-71
2023/11/09 10:30:25;;;;;;;;;;;;;;;11.26;64.60;99700.63;5007705;28;19983;-69
2023/11/09 10:33:02;;;;;;;;;;;;;;;11.15;64.51;99709.34;4985789;28;19965;-71
2023/11/09 10:35:29;;;;;;;;;;;;;;;11.11;65.11;99701.78;4984208;28;19995;-70
2023/11/09 10:37:57;;;;;;;;;;;;;;;10.98;65.55;99707.13;5007090;28;20659;-68
2023/11/09 10:40:29;;;;;;;;;;;;;;;11.02;64.98;99723.56;4991167;28;19925;-71
2023/11/09 10:43:05;;;;;;;;;;;;;;;11.00;64.51;99704.41;5006038;28;19979;-72
2023/11/09 10:45:38;;;;;;;;;;;;;;;10.96;64.35;99692.44;5003229;28;19929;-73
2023/11/09 10:48:05;;;;;;;;;;;;;;;11.09;64.58;99711.63;5005084;28;19961;-71
2023/11/09 10:50:34;;;;;;;;;;;;;;;11.15;64.00;99701.44;5014605;28;19933;-71
2023/11/09 10:53:04;;;;;;;;;;;;;;;11.07;64.39;99689.81;5018336;28;20316;-70
2023/11/09 10:55:32;;;;;;;;;;;;;;;10.95;64.61;99691.59;5025359;28;19926;-73
2023/11/09 10:58:05;;;;;;;;;;;;;;;11.00;64.82;99693.88;5005270;28;20309;-72
2023/11/09 11:00:42;;;;;;;;;;;;;;;11.06;64.91;99682.88;5021652;28;20486;-74
2023/11/09 11:03:16;;;;;;;;;;;;;;;11.08;64.61;99675.69;5012983;28;19940;-70
2023/11/09 11:05:44;;;;;;;;;;;;;;;11.04;64.53;99682.16;5024103;28;19925;-72
2023/11/09 11:08:13;;;;;;;;;;;;;;;11.07;64.36;99674.00;5024538;28;19925;-72
2023/11/09 11:11:05;;;;;;;;;;;;;;;11.08;64.77;99675.69;5022681;28;20354;-71
2023/11/09 11:13:32;;;;;;;;;;;;;;;11.12;64.94;99671.84;5029778;28;19925;-70
2023/11/09 11:16:10;;;;;;;;;;;;;;;11.08;64.63;99671.28;4984144;28;19925;-67
2023/11/09 11:18:39;;;;;;;;;;;;;;;11.04;64.61;99674.25;5003471;28;19929;-71
2023/11/09 11:21:20;;;;;;;;;;;;;;;11.03;64.96;99669.91;5002185;28;19972;-71
2023/11/09 11:24:04;;;;;;;;;;;;;;;11.03;65.06;99672.56;5022179;28;19987;-67
2023/11/09 11:26:41;;;;;;;;;;;;;;;11.02;65.21;99676.97;5004022;28;19933;-70
2023/11/09 11:29:29;;;;;;;;;;;;;;;11.02;65.09;99674.34;5004177;28;19938;-72
2023/11/09 11:31:57;;;;;;;;;;;;;;;11.05;65.43;99676.75;5024331;28;20352;-70
2023/11/09 11:34:47;;;;;;;;;;;;;;;11.10;64.90;99669.34;5024087;28;19925;-72
2023/11/09 11:37:22;;;;;;;;;;;;;;;11.12;65.51;99674.47;5036992;28;19979;-69
2023/11/09 11:39:50;;;;;;;;;;;;;;;11.13;64.99;99677.03;5022114;28;20456;-66
2023/11/09 11:42:22;;;;;;;;;;;;;;;11.16;65.06;99668.88;5007546;28;19931;-70
2023/11/09 11:44:50;;;;;;;;;;;;;;;11.16;64.77;99666.22;5001869;28;19952;-73
2023/11/09 11:47:25;;;;;;;;;;;;;;;11.21;64.71;99667.69;5017486;28;19952;-73
2023/11/09 11:49:56;;;;;;;;;;;;;;;11.20;64.75;99658.94;5024212;28;19925;-72
2023/11/09 11:52:24;;;;;;;;;;;;;;;11.17;64.76;99661.81;5018843;28;19964;-71
2023/11/09 11:54:51;;;;;;;;;;;;;;;11.16;64.97;99660.97;5013788;28;19933;-68
2023/11/09 11:57:19;;;;;;;;;;;;;;;11.31;64.57;99666.03;5020492;28;19988;-71
2023/11/09 12:00:08;;;;;;;;;;;;;;;11.34;64.53;99657.88;5010328;28;19925;-71
2023/11/09 12:02:36;;;;;;;;;;;;;;;11.48;64.44;99673.44;5011962;28;20055;-71
2023/11/09 12:05:06;;;;;;;;;;;;;;;11.58;63.89;99669.16;5028261;28;19932;-69
2023/11/09 12:07:37;;;;;;;;;;;;;;;11.66;63.78;99665.91;5010408;28;19987;-67
2023/11/09 12:10:05;;;;;;;;;;;;;;;11.74;63.62;99658.22;4997460;28;20384;-69
2023/11/09 12:12:34;;;;;;;;;;;;;;;11.69;63.55;99659.56;5025012;28;21069;-71
2023/11/09 12:15:02;;;;;;;;;;;;;;;11.81;63.51;99658.59;5004779;28;19961;-69
2023/11/09 12:17:29;;;;;;;;;;;;;;;11.80;63.48;99649.00;4991956;28;19933;-68
2023/11/09 12:19:56;;;;;;;;;;;;;;;11.76;64.19;99647.56;5005673;28;19991;-66
2023/11/09 12:22:23;;;;;;;;;;;;;;;11.69;63.72;99649.00;5022107;28;19925;-69
2023/11/09 12:25:00;;;;;;;;;;;;;;;11.70;63.93;99640.13;5027081;28;19971;-70
2023/11/09 12:27:27;;;;;;;;;;;;;;;11.77;63.98;99658.00;5027728;28;20453;-69
2023/11/09 12:29:54;;;;;;;;;;;;;;;11.77;64.19;99641.34;5012554;28;20430;-68
2023/11/09 12:32:21;;;;;;;;;;;;;;;11.89;63.89;99654.41;5041112;28;19925;-71
2023/11/09 12:34:49;;;;;;;;;;;;;;;11.88;64.39;99642.16;5027917;28;19929;-67
2023/11/09 12:37:17;;;;;;;;;;;;;;;11.88;63.79;99651.88;5021983;28;19926;-66
2023/11/09 12:39:48;;;;;;;;;;;;;;;11.87;63.79;99639.66;5026381;28;20523;-65
2023/11/09 12:42:24;;;;;;;;;;;;;;;11.84;64.28;99642.53;5007850;28;20014;-67
2023/11/09 12:44:52;;;;;;;;;;;;;;;11.90;64.49;99636.78;5022719;28;19927;-67
2023/11/09 12:47:25;;;;;;;;;;;;;;;11.94;64.44;99643.50;5021465;28;20360;-67
2023/11/09 12:49:53;;;;;;;;;;;;;;;11.90;64.30;99644.72;5041721;28;20391;-65
2023/11/09 12:52:21;;;;;;;;;;;;;;;11.84;63.71;99638.13;5039412;28;19944;-68
2023/11/09 12:54:48;;;;;;;;;;;;;;;11.83;63.91;99639.06;5010985;28;20497;-67
2023/11/09 12:57:17;;;;;;;;;;;;;;;11.73;64.75;99645.19;5026875;28;19929;-67
2023/11/09 12:59:46;;;;;;;;;;;;;;;11.65;64.56;99628.16;5024004;28;19936;-65
2023/11/09 13:02:18;;;;;;;;;;;;;;;11.66;64.53;99644.81;5038223;28;19964;-67